Time;durP1;ratioP1;P1;durP2;ratioP2;P2;SDS_P1;SDS_P2;PMS_P1;PMS_P2;Temp;Humidity;BMP_temperature;BMP_pressure;BME280_temperature;BME280_humidity;BME280_pressure;Samples;Min_cycle;Max_cycle;Signal;HPM_P1;HPM_P2
2023/04/19 00:00:07;;;;;;;;;40.25;37.50;;;;;11.48;59.82;99148.72;5108393;28;8847;-77
2023/04/19 00:02:57;;;;;;;;;43.25;37.50;;;;;11.44;59.95;99142.69;5078815;28;8840;-78
2023/04/19 00:05:26;;;;;;;;;35.00;33.25;;;;;11.49;59.63;99132.03;5089470;28;9677;-78
2023/04/19 00:07:56;;;;;;;;;40.00;33.25;;;;;11.58;59.38;99134.38;5091959;28;8859;-80
2023/04/19 00:10:26;;;;;;;;;36.75;32.50;;;;;11.62;59.30;99130.72;5111920;28;9737;-78
2023/04/19 00:12:55;;;;;;;;;34.75;32.25;;;;;11.67;59.20;99138.47;5111775;28;8966;-77
2023/04/19 00:15:25;;;;;;;;;36.50;31.00;;;;;11.74;58.79;99134.72;5111989;28;8952;-79
2023/04/19 00:17:55;;;;;;;;;34.50;30.00;;;;;11.73;58.90;99130.38;5112096;28;8835;-78
2023/04/19 00:20:24;;;;;;;;;35.25;33.75;;;;;11.72;58.68;99144.44;5094296;28;8862;-77
2023/04/19 00:22:53;;;;;;;;;35.25;34.75;;;;;11.74;58.28;99140.00;5095187;28;10166;-78
2023/04/19 00:25:21;;;;;;;;;33.50;33.50;;;;;11.73;58.73;99135.66;5102043;28;8827;-78
2023/04/19 00:27:50;;;;;;;;;38.50;29.25;;;;;11.71;58.27;99137.44;5115346;28;8846;-78
2023/04/19 00:30:21;;;;;;;;;31.20;30.00;;;;;11.72;58.73;99137.41;5112690;28;8867;-77
2023/04/19 00:32:53;;;;;;;;;33.50;29.00;;;;;11.79;58.22;99131.97;5077746;28;8876;-79
2023/04/19 00:35:25;;;;;;;;;36.80;30.20;;;;;11.76;58.53;99132.91;5093803;28;8882;-77
2023/04/19 00:37:54;;;;;;;;;33.50;32.75;;;;;11.79;58.08;99139.88;5111635;28;8860;-78
2023/04/19 00:40:23;;;;;;;;;36.80;34.80;;;;;11.81;58.26;99130.13;5075695;28;9645;-77
2023/04/19 00:42:52;;;;;;;;;27.20;23.40;;;;;11.80;58.35;99131.88;5096422;28;9609;-78
2023/04/19 00:45:20;;;;;;;;;27.20;25.80;;;;;11.80;57.82;99131.03;5099366;28;8835;-78
2023/04/19 00:47:49;;;;;;;;;31.40;29.20;;;;;11.82;57.60;99129.22;5079853;28;8841;-77
2023/04/19 00:50:21;;;;;;;;;34.00;30.00;;;;;11.85;57.74;99135.28;5072726;28;8858;-76
2023/04/19 00:52:53;;;;;;;;;30.25;29.00;;;;;11.89;57.92;99128.13;5089585;28;8861;-76
2023/04/19 00:55:24;;;;;;;;;30.80;30.00;;;;;11.91;57.87;99129.78;5040959;28;8858;-79
2023/04/19 00:57:54;;;;;;;;;29.00;28.00;;;;;12.04;57.34;99132.88;5089394;28;8846;-77
2023/04/19 01:00:23;;;;;;;;;35.50;32.50;;;;;12.03;57.43;99125.91;5072245;28;9003;-77
2023/04/19 01:02:52;;;;;;;;;30.60;29.80;;;;;12.08;57.64;99116.06;5071323;28;8873;-76
2023/04/19 01:05:22;;;;;;;;;25.75;25.75;;;;;12.10;57.30;99114.22;5090504;28;8873;-77
2023/04/19 01:07:51;;;;;;;;;33.25;29.00;;;;;12.05;57.63;99104.75;5072359;28;8901;-77
2023/04/19 01:10:20;;;;;;;;;34.80;30.40;;;;;11.95;58.00;99105.06;5038741;28;8913;-77
2023/04/19 01:12:51;;;;;;;;;34.40;31.20;;;;;12.01;57.92;99105.78;5090792;28;8890;-77
2023/04/19 01:15:19;;;;;;;;;25.60;25.40;;;;;11.48;59.82;99101.34;5090215;28;8901;-79
2023/04/19 01:17:50;;;;;;;;;33.20;31.20;;;;;11.72;58.76;99103.16;5071644;28;8845;-78
2023/04/19 01:20:23;;;;;;;;;29.00;26.80;;;;;11.86;58.60;99099.25;5071065;28;8938;-78
2023/04/19 01:22:53;;;;;;;;;31.80;29.40;;;;;11.89;58.46;99094.75;5072324;28;9630;-76
2023/04/19 01:25:22;;;;;;;;;29.00;28.80;;;;;11.83;58.64;99089.69;5072102;28;9608;-78
2023/04/19 01:27:51;;;;;;;;;26.40;25.20;;;;;11.87;58.69;99087.81;5090281;28;8858;-78
2023/04/19 01:30:20;;;;;;;;;27.40;25.00;;;;;11.87;58.52;99077.28;5090380;28;8873;-78
2023/04/19 01:32:49;;;;;;;;;30.60;28.20;;;;;11.91;58.57;99069.22;5090878;28;8842;-76
2023/04/19 01:35:18;;;;;;;;;29.80;27.20;;;;;11.81;58.90;99073.06;5057169;28;8870;-77
2023/04/19 01:37:47;;;;;;;;;29.60;27.40;;;;;11.66;59.12;99066.53;5096132;28;9600;-77
2023/04/19 01:40:18;;;;;;;;;26.40;23.00;;;;;11.80;59.21;99075.72;5046831;28;8972;-78
2023/04/19 01:42:47;;;;;;;;;25.40;24.80;;;;;11.41;60.09;99077.00;5030431;28;8866;-77
2023/04/19 01:45:15;;;;;;;;;33.40;28.60;;;;;11.43;59.84;99069.91;5043367;28;8855;-77
2023/04/19 01:47:44;;;;;;;;;26.00;26.00;;;;;11.49;59.61;99069.72;5066794;28;8867;-79
2023/04/19 01:50:13;;;;;;;;;28.60;26.20;;;;;11.51;59.86;99067.88;5066777;28;8930;-76
2023/04/19 01:52:43;;;;;;;;;30.00;29.00;;;;;11.51;60.06;99067.03;5033866;28;9615;-78
2023/04/19 01:55:12;;;;;;;;;33.40;30.60;;;;;11.57;59.62;99059.78;5016952;28;8883;-77
2023/04/19 01:57:42;;;;;;;;;21.50;18.50;;;;;11.48;60.02;99068.00;5050169;28;8874;-78
2023/04/19 02:00:12;;;;;;;;;37.25;33.50;;;;;11.49;59.88;99069.72;5012901;28;8869;-78
2023/04/19 02:02:44;;;;;;;;;32.20;31.00;;;;;11.23;60.69;99057.38;5014519;28;8870;-76
2023/04/19 02:05:13;;;;;;;;;29.80;28.40;;;;;11.32;60.72;99059.72;5046471;28;8865;-77
2023/04/19 02:07:41;;;;;;;;;30.60;30.00;;;;;11.38;60.39;99056.88;5046212;28;8861;-78
2023/04/19 02:10:11;;;;;;;;;30.40;28.80;;;;;11.49;60.46;99063.59;5029197;28;8878;-77
2023/04/19 02:12:42;;;;;;;;;34.60;31.80;;;;;11.56;60.01;99063.34;5030393;28;8896;-76
2023/04/19 02:15:11;;;;;;;;;39.75;35.00;;;;;11.57;59.60;99057.16;5066791;28;8898;-78
2023/04/19 02:17:41;;;;;;;;;36.50;35.00;;;;;11.21;61.13;99053.94;5042059;28;8836;-78
2023/04/19 02:20:10;;;;;;;;;34.00;32.50;;;;;11.02;61.69;99058.06;5110526;28;8983;-77
2023/04/19 02:22:39;;;;;;;;;32.00;29.25;;;;;11.15;61.62;99054.13;5110134;28;8940;-76
2023/04/19 02:25:08;;;;;;;;;37.25;35.75;;;;;11.03;61.97;99055.38;5086419;28;8845;-77
2023/04/19 02:27:37;;;;;;;;;28.60;25.00;;;;;11.14;61.49;99049.78;5069600;28;8856;-77
2023/04/19 02:30:09;;;;;;;;;33.20;31.80;;;;;11.33;60.85;99052.69;5069159;28;8883;-79
2023/04/19 02:32:38;;;;;;;;;34.25;33.00;;;;;11.30;61.02;99055.44;5036622;28;8861;-79
2023/04/19 02:35:08;;;;;;;;;34.50;33.75;;;;;11.41;60.62;99050.69;5053821;28;9001;-76
2023/04/19 02:37:37;;;;;;;;;31.00;29.20;;;;;11.35;60.73;99050.84;5106814;28;8888;-77
2023/04/19 02:40:07;;;;;;;;;33.25;32.00;;;;;11.40;60.79;99048.94;5090025;28;8870;-76
2023/04/19 02:42:36;;;;;;;;;38.00;36.25;;;;;11.27;61.39;99042.34;5061292;28;8966;-78
2023/04/19 02:45:08;;;;;;;;;31.60;29.00;;;;;11.41;61.14;99040.16;5029231;28;8873;-77
2023/04/19 02:47:37;;;;;;;;;31.20;29.20;;;;;11.37;61.13;99034.13;4996515;28;9136;-76
2023/04/19 02:50:07;;;;;;;;;30.60;28.00;;;;;11.37;61.25;99039.41;5029012;28;8908;-76
2023/04/19 02:52:44;;;;;;;;;34.20;28.00;;;;;11.26;61.72;99027.50;4983889;28;8959;-79
2023/04/19 02:55:13;;;;;;;;;36.00;32.00;;;;;11.01;63.18;99030.03;5028805;28;9352;-78
2023/04/19 02:57:42;;;;;;;;;27.20;25.60;;;;;10.99;63.10;99027.44;5029012;28;8854;-78
2023/04/19 03:00:14;;;;;;;;;26.60;24.60;;;;;10.81;64.27;99026.25;5014160;28;8882;-78
2023/04/19 03:02:52;;;;;;;;;31.80;30.60;;;;;10.92;64.15;99032.03;4994505;28;9654;-78
2023/04/19 03:05:21;;;;;;;;;19.20;18.00;;;;;10.75;64.68;99031.69;5048490;28;8867;-79
2023/04/19 03:07:50;;;;;;;;;30.40;26.40;;;;;10.62;65.57;99025.06;5048362;28;8855;-78
2023/04/19 03:10:19;;;;;;;;;39.50;33.25;;;;;10.61;65.48;99016.28;5048530;28;8867;-78
2023/04/19 03:12:48;;;;;;;;;21.50;17.50;;;;;10.57;65.69;99023.38;5036309;28;8863;-76
2023/04/19 03:15:18;;;;;;;;;38.25;33.00;;;;;10.50;66.48;99021.88;5076118;28;8873;-76
2023/04/19 03:17:47;;;;;;;;;32.50;31.25;;;;;10.72;65.22;99018.59;5092973;28;8832;-77
2023/04/19 03:20:19;;;;;;;;;36.80;31.40;;;;;10.38;66.98;99020.44;5092887;28;8877;-76
2023/04/19 03:22:49;;;;;;;;;31.60;28.40;;;;;10.30;67.50;99016.31;5075898;28;8839;-75
2023/04/19 03:25:18;;;;;;;;;29.20;28.00;;;;;10.66;66.08;99010.91;5092276;28;8839;-77
2023/04/19 03:27:54;;;;;;;;;35.50;31.00;;;;;10.72;65.57;99014.19;5050791;28;8856;-76
2023/04/19 03:30:42;;;;;;;;;36.40;29.20;;;;;10.77;65.57;99022.00;5034152;28;8875;-76
2023/04/19 03:33:11;;;;;;;;;35.40;31.00;;;;;10.55;66.55;99016.47;5034423;28;8855;-76
2023/04/19 03:35:40;;;;;;;;;35.40;32.60;;;;;9.93;68.49;99015.59;5034599;28;10311;-77
2023/04/19 03:38:12;;;;;;;;;35.00;32.75;;;;;9.77;69.94;99022.97;5034654;28;8855;-77
2023/04/19 03:40:42;;;;;;;;;66.75;54.00;;;;;9.78;69.93;99016.84;5051333;28;8864;-78
2023/04/19 03:43:14;;;;;;;;;32.00;29.50;;;;;9.42;71.32;99022.09;5015275;28;8848;-79
2023/04/19 03:45:45;;;;;;;;;31.25;30.00;;;;;9.37;72.27;99023.09;5048056;28;9946;-76
2023/04/19 03:48:14;;;;;;;;;43.75;37.75;;;;;9.10;73.04;99025.50;5048344;28;8890;-77
2023/04/19 03:50:44;;;;;;;;;40.25;35.50;;;;;8.70;75.35;99025.50;5064949;28;8863;-75
2023/04/19 03:53:17;;;;;;;;;38.75;36.50;;;;;9.08;73.82;99024.63;5048501;28;8863;-77
2023/04/19 03:55:46;;;;;;;;;38.25;34.00;;;;;9.45;71.92;99022.91;5048343;28;8863;-75
2023/04/19 03:58:15;;;;;;;;;39.00;35.50;;;;;9.73;70.58;99010.84;5055628;28;9051;-77
2023/04/19 04:00:53;;;;;;;;;29.50;29.25;;;;;9.88;69.66;99008.72;5101243;28;8935;-77
2023/04/19 04:03:23;;;;;;;;;36.25;32.75;;;;;9.99;68.82;99011.94;5076194;28;8871;-76
2023/04/19 04:05:53;;;;;;;;;34.25;32.50;;;;;9.79;69.37;99020.31;5090457;28;9731;-76
2023/04/19 04:08:23;;;;;;;;;42.00;37.50;;;;;10.03;68.34;99018.81;5090245;28;8899;-76
2023/04/19 04:10:54;;;;;;;;;35.75;32.50;;;;;9.08;71.89;99029.88;5069453;28;9029;-77
2023/04/19 04:13:23;;;;;;;;;29.80;25.80;;;;;9.61;70.51;99019.91;5052792;28;8847;-78
2023/04/19 04:16:05;;;;;;;;;31.80;29.80;;;;;9.57;70.68;99027.88;5071673;28;8862;-76
2023/04/19 04:18:35;;;;;;;;;36.00;32.50;;;;;9.87;69.31;99022.75;5016507;28;8896;-78
2023/04/19 04:21:07;;;;;;;;;38.75;34.50;;;;;9.63;70.04;99025.13;5065402;28;9624;-78
2023/04/19 04:23:38;;;;;;;;;32.00;31.00;;;;;9.91;69.12;99027.84;5071832;28;8871;-78
2023/04/19 04:26:12;;;;;;;;;54.75;45.25;;;;;9.89;69.01;99023.56;5083343;28;8978;-78
2023/04/19 04:29:07;;;;;;;;;50.50;42.75;;;;;10.28;67.71;99018.13;5058907;28;8844;-77
2023/04/19 04:31:38;;;;;;;;;43.50;37.25;;;;;10.56;66.71;99021.69;5070012;28;8979;-80
2023/04/19 04:34:09;;;;;;;;;32.75;31.75;;;;;10.23;67.13;99014.78;5088878;28;8848;-79
2023/04/19 04:36:46;;;;;;;;;32.50;30.00;;;;;10.38;66.04;99016.97;5071123;28;8859;-76
2023/04/19 04:39:15;;;;;;;;;39.80;34.80;;;;;10.44;65.79;99014.16;5088413;28;8852;-77
2023/04/19 04:41:45;;;;;;;;;33.00;28.60;;;;;10.52;65.73;99014.81;5086393;28;8880;-78
2023/04/19 04:44:15;;;;;;;;;54.75;43.25;;;;;10.68;64.85;99017.81;5085800;28;8936;-79
2023/04/19 04:46:49;;;;;;;;;62.50;50.50;;;;;10.78;64.74;99018.44;5069095;28;8909;-78
2023/04/19 04:49:24;;;;;;;;;39.75;35.00;;;;;10.88;64.31;99016.38;5019558;28;8848;-78
2023/04/19 04:51:53;;;;;;;;;62.50;50.00;;;;;11.04;63.73;99012.38;5067237;28;9013;-78
2023/04/19 04:54:22;;;;;;;;;44.25;37.50;;;;;10.82;63.63;99020.06;5068255;28;8963;-80
2023/04/19 04:56:52;;;;;;;;;36.75;32.50;;;;;11.00;63.05;99012.53;5069144;28;8874;-79
2023/04/19 04:59:22;;;;;;;;;36.00;34.00;;;;;10.62;63.99;99015.38;5080436;28;8847;-78
2023/04/19 05:01:53;;;;;;;;;38.50;34.00;;;;;10.97;63.62;99022.25;5089416;28;8941;-77
2023/04/19 05:04:25;;;;;;;;;33.25;32.50;;;;;10.96;63.16;99030.19;5073145;28;9609;-79
2023/04/19 05:06:53;;;;;;;;;32.40;28.80;;;;;11.08;62.52;99027.16;5089142;28;8977;-76
2023/04/19 05:09:26;;;;;;;;;31.50;29.50;;;;;10.85;63.24;99022.59;5088884;28;8852;-77
2023/04/19 05:11:55;;;;;;;;;33.25;29.25;;;;;10.81;62.91;99028.03;5089173;28;8855;-78
2023/04/19 05:14:25;;;;;;;;;37.25;31.25;;;;;10.96;62.79;99025.78;5089332;28;8824;-78
2023/04/19 05:16:55;;;;;;;;;28.50;25.75;;;;;10.94;62.81;99024.09;5089094;28;9767;-79
2023/04/19 05:19:24;;;;;;;;;34.00;30.75;;;;;10.74;63.42;99025.56;5088189;28;10021;-78
2023/04/19 05:22:00;;;;;;;;;35.40;33.00;;;;;10.94;62.68;99026.75;5069443;28;9042;-78
2023/04/19 05:24:29;;;;;;;;;29.20;29.00;;;;;11.03;62.22;99025.56;5038114;28;8848;-78
2023/04/19 05:26:59;;;;;;;;;33.00;31.50;;;;;10.38;63.82;99028.31;5089489;28;8970;-79
2023/04/19 05:29:29;;;;;;;;;32.80;29.20;;;;;10.71;62.53;99033.53;5055493;28;8868;-78
2023/04/19 05:31:59;;;;;;;;;39.75;34.25;;;;;10.18;64.01;99041.19;5024471;28;8888;-76
2023/04/19 05:34:32;;;;;;;;;35.20;33.60;;;;;10.42;63.79;99036.97;4994723;28;8867;-80
2023/04/19 05:37:02;;;;;;;;;32.80;30.60;;;;;10.25;64.50;99037.44;4997606;28;8898;-80
2023/04/19 05:39:32;;;;;;;;;39.00;30.20;;;;;10.39;64.18;99039.72;4997442;28;8833;-80
2023/04/19 05:42:01;;;;;;;;;40.50;35.75;;;;;10.34;63.83;99037.19;4998397;28;8998;-78
2023/04/19 05:44:30;;;;;;;;;37.60;30.40;;;;;9.48;67.06;99043.81;4992851;28;8859;-76
2023/04/19 05:47:01;;;;;;;;;36.50;34.50;;;;;9.41;67.88;99049.22;5022559;28;8888;-77
2023/04/19 05:49:50;;;;;;;;;37.75;34.75;;;;;9.35;67.84;99056.38;4975356;28;8842;-77
2023/04/19 05:52:29;;;;;;;;;28.00;27.60;;;;;9.14;67.34;99053.38;4988447;28;8890;-76
2023/04/19 05:55:00;;;;;;;;;19.80;19.20;;;;;9.26;66.79;99052.22;4977274;28;9613;-77
2023/04/19 05:57:29;;;;;;;;;35.60;31.00;;;;;8.80;68.64;99059.34;4968178;28;9002;-76
2023/04/19 05:59:59;;;;;;;;;21.80;19.80;;;;;8.60;68.84;99058.91;4992279;28;8863;-75
2023/04/19 06:02:51;;;;;;;;;30.40;29.00;;;;;8.99;67.69;99048.47;5004066;28;8890;-74
2023/04/19 06:05:22;;;;;;;;;26.20;26.20;;;;;8.73;68.63;99064.75;5006316;28;8890;-76
2023/04/19 06:07:55;;;;;;;;;29.00;25.80;;;;;8.75;68.47;99055.97;4974700;28;8980;-77
2023/04/19 06:10:27;;;;;;;;;27.00;24.00;;;;;8.85;67.21;99051.38;5009048;28;8862;-76
2023/04/19 06:13:16;;;;;;;;;30.00;29.40;;;;;8.84;67.22;99053.16;5007060;28;8882;-77
2023/04/19 06:15:46;;;;;;;;;23.60;21.40;;;;;9.45;65.37;99051.78;4942211;28;8862;-76
2023/04/19 06:18:16;;;;;;;;;27.20;25.60;;;;;9.25;65.60;99053.09;4990342;28;8874;-76
2023/04/19 06:20:49;;;;;;;;;29.60;26.00;;;;;9.86;63.70;99052.50;5010776;28;8844;-78
2023/04/19 06:23:18;;;;;;;;;27.60;26.20;;;;;9.43;64.26;99057.06;5010105;28;8871;-77
2023/04/19 06:25:48;;;;;;;;;23.80;22.00;;;;;8.97;65.06;99066.84;5026600;28;8864;-77
2023/04/19 06:28:17;;;;;;;;;20.60;19.60;;;;;9.36;64.84;99058.94;5047040;28;8984;-79
2023/04/19 06:30:46;;;;;;;;;22.60;21.40;;;;;10.07;63.06;99051.97;5054654;28;8847;-78
2023/04/19 06:33:16;;;;;;;;;27.00;25.20;;;;;10.15;62.38;99042.09;5067773;28;8858;-75
2023/04/19 06:35:45;;;;;;;;;26.80;26.20;;;;;10.20;61.47;99052.50;5037483;28;8859;-77
2023/04/19 06:38:14;;;;;;;;;22.40;21.00;;;;;10.17;60.20;99055.19;5067370;28;9021;-75
2023/04/19 06:40:43;;;;;;;;;22.80;22.80;;;;;9.49;63.56;99069.16;5054243;28;8846;-76
2023/04/19 06:43:11;;;;;;;;;22.60;21.40;;;;;9.22;62.77;99067.16;5038030;28;8877;-78
2023/04/19 06:45:40;;;;;;;;;23.80;22.00;;;;;9.18;63.26;99069.91;5050170;28;8842;-77
2023/04/19 06:48:09;;;;;;;;;28.00;25.60;;;;;9.13;63.16;99072.59;5060510;28;8879;-76
2023/04/19 06:50:39;;;;;;;;;27.80;24.60;;;;;9.49;61.89;99074.41;5048515;28;8853;-76
2023/04/19 06:53:08;;;;;;;;;26.40;24.80;;;;;9.50;61.95;99077.00;5047126;28;9475;-78
2023/04/19 06:55:38;;;;;;;;;38.25;34.25;;;;;9.55;61.07;99076.88;5064435;28;8862;-78
2023/04/19 06:58:09;;;;;;;;;21.20;19.60;;;;;9.18;59.28;99077.75;4997481;28;9603;-78
2023/04/19 07:00:38;;;;;;;;;25.60;23.00;;;;;9.31;60.79;99081.81;5048429;28;8856;-78
2023/04/19 07:03:08;;;;;;;;;25.40;25.00;;;;;9.50;59.81;99081.38;5031077;28;8973;-79
2023/04/19 07:05:38;;;;;;;;;23.60;21.60;;;;;9.26;60.47;99085.44;5030723;28;8880;-79
2023/04/19 07:08:08;;;;;;;;;22.00;20.00;;;;;9.03;59.82;99089.44;4998601;28;8857;-78
2023/04/19 07:10:37;;;;;;;;;24.60;21.60;;;;;9.56;58.29;99082.09;5053090;28;8862;-76
2023/04/19 07:13:05;;;;;;;;;21.60;18.60;;;;;9.39;58.63;99079.03;5033845;28;8920;-76
2023/04/19 07:15:35;;;;;;;;;22.40;21.20;;;;;8.89;59.21;99087.09;5070308;28;8836;-78
2023/04/19 07:18:04;;;;;;;;;16.60;16.40;;;;;8.86;58.56;99081.09;5088471;28;8859;-80
2023/04/19 07:20:34;;;;;;;;;14.60;13.00;;;;;9.15;56.75;99085.69;5038181;28;8868;-78
2023/04/19 07:23:04;;;;;;;;;20.20;17.40;;;;;9.17;55.97;99084.75;5088058;28;8848;-77
2023/04/19 07:25:33;;;;;;;;;17.80;17.20;;;;;9.21;56.57;99085.53;5071949;28;8856;-77
2023/04/19 07:28:01;;;;;;;;;24.00;19.60;;;;;9.37;56.50;99083.44;5071991;28;8871;-79
2023/04/19 07:30:30;;;;;;;;;25.80;25.40;;;;;9.37;56.87;99083.44;5038909;28;8836;-75
2023/04/19 07:32:59;;;;;;;;;19.40;17.40;;;;;9.74;54.99;99080.78;5097882;28;8950;-77
2023/04/19 07:35:28;;;;;;;;;20.40;19.20;;;;;9.57;54.88;99083.88;5094770;28;8890;-76
2023/04/19 07:37:57;;;;;;;;;21.40;20.40;;;;;9.66;55.36;99080.13;5088512;28;8864;-80
2023/04/19 07:40:27;;;;;;;;;21.80;20.80;;;;;9.88;54.97;99083.09;5050204;28;9633;-78
2023/04/19 07:42:56;;;;;;;;;21.20;17.40;;;;;10.05;53.93;99080.03;5066041;28;8871;-77
2023/04/19 07:45:25;;;;;;;;;24.60;22.00;;;;;10.02;54.10;99078.31;5065792;28;8836;-77
2023/04/19 07:47:54;;;;;;;;;14.60;14.60;;;;;9.66;54.79;99087.16;5031927;28;8956;-77
2023/04/19 07:50:25;;;;;;;;;17.20;17.20;;;;;9.71;55.17;99075.63;5034420;28;8946;-81
2023/04/19 07:52:55;;;;;;;;;23.00;18.00;;;;;9.60;54.81;99070.66;5008314;28;8892;-76
2023/04/19 07:55:24;;;;;;;;;18.80;18.60;;;;;9.79;54.55;99080.69;5009073;28;8999;-78
2023/04/19 07:57:54;;;;;;;;;18.00;17.60;;;;;9.49;54.93;99082.28;5028100;28;8897;-75
2023/04/19 08:00:23;;;;;;;;;18.00;16.60;;;;;9.51;54.74;99075.22;5044761;28;8896;-79
2023/04/19 08:02:52;;;;;;;;;13.80;12.80;;;;;9.81;53.78;99073.63;5011645;28;8882;-76
2023/04/19 08:05:21;;;;;;;;;16.80;16.80;;;;;10.09;50.59;99067.69;4970565;28;8919;-77
2023/04/19 08:07:52;;;;;;;;;18.00;15.80;;;;;10.48;50.39;99071.00;5013371;28;10005;-77
2023/04/19 08:10:22;;;;;;;;;15.20;15.20;;;;;10.45;48.64;99057.06;5031284;28;8913;-83
2023/04/19 08:12:51;;;;;;;;;16.00;13.80;;;;;10.20;50.66;99071.75;5017566;28;8866;-77
2023/04/19 08:15:35;;;;;;;;;16.00;14.80;;;;;11.08;49.13;99063.97;5031812;28;8850;-77
2023/04/19 08:18:24;;;;;;;;;17.80;16.20;;;;;11.11;48.96;99070.94;5048032;28;8880;-77
2023/04/19 08:20:54;;;;;;;;;19.80;18.20;;;;;11.21;49.26;99079.41;5045193;28;8931;-76
2023/04/19 08:23:23;;;;;;;;;16.00;14.00;;;;;10.90;50.23;99077.72;5047414;28;8851;-73
2023/04/19 08:26:02;;;;;;;;;17.60;16.80;;;;;11.47;48.20;99073.31;5022173;28;8827;-75
2023/04/19 08:28:31;;;;;;;;;22.60;20.00;;;;;11.16;49.65;99088.28;5029385;28;9651;-74
2023/04/19 08:31:06;;;;;;;;;16.80;16.80;;;;;11.06;50.25;99083.34;5031837;28;9818;-74
2023/04/19 08:33:34;;;;;;;;;17.00;16.00;;;;;11.17;50.43;99090.00;5031320;28;8878;-75
2023/04/19 08:36:04;;;;;;;;;21.80;18.80;;;;;10.97;51.60;99073.97;5031445;28;8969;-77
2023/04/19 08:38:32;;;;;;;;;17.80;17.80;;;;;11.15;52.12;99070.78;5048107;28;8922;-75
2023/04/19 08:41:01;;;;;;;;;19.40;19.40;;;;;11.10;53.20;99077.09;5015469;28;8977;-75
2023/04/19 08:43:32;;;;;;;;;20.60;20.20;;;;;11.69;52.16;99063.81;5031202;28;8870;-76
2023/04/19 08:46:03;;;;;;;;;18.20;18.20;;;;;11.95;51.13;99062.94;5045243;28;8875;-74
2023/04/19 08:48:35;;;;;;;;;16.20;15.80;;;;;12.71;49.88;99066.38;5027987;28;8857;-73
2023/04/19 08:51:05;;;;;;;;;15.00;15.00;;;;;11.74;48.73;99069.75;5027849;28;8970;-81
2023/04/19 08:53:35;;;;;;;;;20.60;19.20;;;;;11.62;49.63;99057.00;4997002;28;8899;-81
2023/04/19 08:56:07;;;;;;;;;18.60;16.60;;;;;12.04;48.28;99067.03;5013796;28;8845;-83
2023/04/19 08:58:48;;;;;;;;;21.80;20.80;;;;;11.80;48.53;99063.41;5068227;28;8888;-83
2023/04/19 09:01:40;;;;;;;;;20.00;20.00;;;;;11.89;48.74;99057.88;5070888;28;8873;-81
2023/04/19 09:04:12;;;;;;;;;15.00;14.40;;;;;11.88;46.61;99069.34;5039777;28;8934;-82
2023/04/19 09:07:02;;;;;;;;;16.00;15.20;;;;;12.01;47.54;99061.00;5034204;28;9947;-80
2023/04/19 09:09:31;;;;;;;;;19.80;18.60;;;;;11.44;50.12;99068.13;5033910;28;8853;-83
2023/04/19 09:12:18;;;;;;;;;15.00;15.00;;;;;11.18;49.22;99072.44;5088806;28;8857;-82
2023/04/19 09:14:47;;;;;;;;;18.40;17.40;;;;;10.86;51.17;99058.53;5042141;28;8900;-80
2023/04/19 09:17:21;;;;;;;;;21.20;19.20;;;;;10.86;49.52;99070.78;5095443;28;8830;-81
2023/04/19 09:19:50;;;;;;;;;40.75;38.50;;;;;10.53;52.13;99070.84;5089604;28;8858;-81
2023/04/19 09:22:20;;;;;;;;;37.00;35.20;;;;;10.60;53.21;99064.50;5093905;28;9601;-83
2023/04/19 09:24:49;;;;;;;;;25.60;22.00;;;;;11.24;51.03;99051.22;5092271;28;8991;-83
2023/04/19 09:27:27;;;;;;;;;23.40;19.00;;;;;11.88;47.98;99058.81;5061380;28;9566;-82
2023/04/19 09:29:58;;;;;;;;;21.20;21.20;;;;;11.54;48.61;99067.78;5045287;28;8856;-84
2023/04/19 09:32:46;;;;;;;;;5.80;5.20;;;;;12.13;46.47;99061.44;5097365;28;8830;-83
2023/04/19 09:35:15;;;;;;;;;16.20;16.20;;;;;10.90;47.74;99061.94;5077691;28;8858;-82
2023/04/19 09:37:59;;;;;;;;;17.40;16.20;;;;;11.43;46.75;99059.38;5088172;28;8855;-81
2023/04/19 09:40:35;;;;;;;;;14.80;13.20;;;;;11.05;46.66;99055.31;5061678;28;9005;-81
2023/04/19 09:43:05;;;;;;;;;25.20;17.00;;;;;11.45;45.77;99068.09;5081114;28;9725;-81
2023/04/19 09:45:57;;;;;;;;;20.20;18.80;;;;;12.09;45.19;99056.34;5049907;28;9538;-80
2023/04/19 09:48:28;;;;;;;;;20.00;19.60;;;;;11.96;45.25;99063.81;5068749;28;8890;-80
2023/04/19 09:50:59;;;;;;;;;19.40;18.00;;;;;11.77;44.98;99060.91;5075377;28;8880;-82
2023/04/19 09:53:39;;;;;;;;;20.40;15.20;;;;;11.80;45.21;99073.94;5092766;28;8868;-82
2023/04/19 09:56:11;;;;;;;;;15.80;13.20;;;;;12.22;42.63;99049.72;5080072;28;8903;-82
2023/04/19 09:58:43;;;;;;;;;15.40;15.20;;;;;12.41;41.56;99056.94;5106300;28;8879;-84
2023/04/19 10:01:25;;;;;;;;;8.80;8.00;;;;;11.79;42.69;99058.22;5073629;28;8961;-83
2023/04/19 10:03:57;;;;;;;;;15.40;13.60;;;;;11.74;44.02;99043.41;5036234;28;8863;-83
2023/04/19 10:06:49;;;;;;;;;15.60;15.20;;;;;11.89;42.82;99055.25;5071305;28;8896;-82
2023/04/19 10:09:39;;;;;;;;;16.00;14.80;;;;;11.53;44.48;99057.31;5069239;28;8899;-83
2023/04/19 10:12:24;;;;;;;;;14.80;14.40;;;;;11.33;44.35;99053.56;5035632;28;8871;-86
2023/04/19 10:14:57;;;;;;;;;10.40;10.00;;;;;11.99;41.33;99053.16;5068897;28;8868;-84
2023/04/19 10:17:27;;;;;;;;;15.00;13.40;;;;;12.10;39.79;99048.38;5053394;28;8867;-82
2023/04/19 10:20:06;;;;;;;;;10.00;9.60;;;;;11.87;38.15;99061.50;5053458;28;9002;-83
2023/04/19 10:22:36;;;;;;;;;9.80;9.00;;;;;12.07;37.14;99048.50;5057281;28;9656;-81
2023/04/19 10:25:10;;;;;;;;;15.80;13.00;;;;;12.63;38.25;99047.34;5054708;28;8905;-85
2023/04/19 10:27:40;;;;;;;;;14.60;13.60;;;;;11.81;40.67;99054.63;5047596;28;8882;-83
2023/04/19 10:30:17;;;;;;;;;14.60;13.80;;;;;11.95;41.40;99041.84;5050188;28;8930;-83
2023/04/19 10:32:54;;;;;;;;;14.00;13.80;;;;;11.67;42.22;99047.19;5036118;28;8977;-82
2023/04/19 10:35:28;;;;;;;;;19.20;16.00;;;;;11.89;42.23;99046.50;5052347;28;8868;-81
2023/04/19 10:38:10;;;;;;;;;17.80;15.00;;;;;12.00;41.93;99035.59;5032980;28;8867;-83
2023/04/19 10:41:00;;;;;;;;;14.60;13.60;;;;;11.81;38.14;99037.97;5077333;28;8848;-82
2023/04/19 10:43:30;;;;;;;;;12.20;10.40;;;;;12.04;36.86;99032.78;5093807;28;8896;-81
2023/04/19 10:46:01;;;;;;;;;12.00;12.00;;;;;11.86;38.10;99038.69;5057258;28;8850;-83
2023/04/19 10:48:36;;;;;;;;;14.20;10.60;;;;;12.03;37.76;99028.44;5072829;28;8888;-84
2023/04/19 10:51:18;;;;;;;;;10.40;10.40;;;;;11.76;37.64;99027.56;5039677;28;8892;-83
2023/04/19 10:53:54;;;;;;;;;9.60;9.60;;;;;12.01;37.84;99030.25;5060473;28;8886;-84
2023/04/19 10:57:00;;;;;;;;;14.00;13.80;;;;;12.08;37.85;99037.03;5076329;28;8838;-82
2023/04/19 10:59:30;;;;;;;;;15.00;15.00;;;;;11.86;39.24;99036.94;5074476;28;8949;-82
2023/04/19 11:02:01;;;;;;;;;13.40;12.00;;;;;11.97;39.40;99036.53;5076054;28;8949;-81
2023/04/19 11:05:00;;;;;;;;;15.00;13.00;;;;;11.85;40.27;99034.34;5038324;28;8855;-78
2023/04/19 11:07:39;;;;;;;;;16.60;14.60;;;;;11.92;40.19;99034.06;5037408;28;8906;-85
2023/04/19 11:10:10;;;;;;;;;16.80;14.80;;;;;12.32;39.71;99024.75;5019328;28;8846;-83
2023/04/19 11:12:44;;;;;;;;;19.00;16.80;;;;;12.46;39.02;99034.78;5034929;28;8846;-85
2023/04/19 11:15:14;;;;;;;;;16.40;16.20;;;;;11.66;39.90;99042.81;5035734;28;8882;-84
2023/04/19 11:17:43;;;;;;;;;12.40;12.40;;;;;11.46;39.32;99032.09;5024579;28;8869;-85
2023/04/19 11:20:13;;;;;;;;;15.00;15.00;;;;;11.97;39.14;99031.28;5041011;28;8901;-84
2023/04/19 11:22:46;;;;;;;;;14.00;13.20;;;;;12.43;38.16;99020.84;5038156;28;9073;-85
2023/04/19 11:25:17;;;;;;;;;14.60;13.80;;;;;12.29;38.64;99029.28;4987914;28;8889;-85
2023/04/19 11:27:49;;;;;;;;;15.40;14.20;;;;;11.52;42.02;99032.78;5070712;28;8859;-85
2023/04/19 11:30:21;;;;;;;;;15.20;15.00;;;;;11.65;42.21;99045.50;5090618;28;8859;-84
2023/04/19 11:32:53;;;;;;;;;13.80;12.80;;;;;11.24;41.99;99035.44;5095474;28;8936;-84
2023/04/19 11:35:24;;;;;;;;;15.60;15.00;;;;;11.27;43.59;99047.63;5073906;28;8867;-88
2023/04/19 11:37:58;;;;;;;;;18.20;15.60;;;;;11.06;45.52;99050.00;5092190;28;8954;-84
2023/04/19 11:40:29;;;;;;;;;19.60;16.60;;;;;11.11;46.72;99047.25;5057769;28;8909;-85
2023/04/19 11:43:00;;;;;;;;;19.00;17.40;;;;;11.06;47.26;99052.63;5057750;28;8974;-85
2023/04/19 11:45:33;;;;;;;;;19.60;18.00;;;;;11.64;46.31;99047.28;5090573;28;8844;-82
2023/04/19 11:48:13;;;;;;;;;19.00;19.00;;;;;11.53;46.53;99045.00;5088613;28;8864;-84